sensor_id;sensor_type;location;lat;lon;timestamp;temperature;humidity
11922;DHT22;6021;51.182;3.160;2024-03-23T00:52:51;6.00;99.90
11922;DHT22;6021;51.182;3.160;2024-03-23T00:55:20;6.10;99.90
11922;DHT22;6021;51.182;3.160;2024-03-23T00:57:48;6.00;99.90
11922;DHT22;6021;51.182;3.160;2024-03-23T01:00:16;6.10;99.90
11922;DHT22;6021;51.182;3.160;2024-03-23T01:02:45;5.90;99.90
11922;DHT22;6021;51.182;3.160;2024-03-23T01:05:13;5.90;99.90
11922;DHT22;6021;51.182;3.160;2024-03-23T01:07:42;5.80;99.90
11922;DHT22;6021;51.182;3.160;2024-03-23T01:10:10;5.80;99.90
11922;DHT22;6021;51.182;3.160;2024-03-23T01:12:39;6.00;99.90
11922;DHT22;6021;51.182;3.160;2024-03-23T01:15:07;5.90;99.90
11922;DHT22;6021;51.182;3.160;2024-03-23T01:17:36;5.80;99.90
11922;DHT22;6021;51.182;3.160;2024-03-23T01:20:04;6.10;99.90
11922;DHT22;6021;51.182;3.160;2024-03-23T01:22:33;5.80;99.90
11922;DHT22;6021;51.182;3.160;2024-03-23T01:25:02;5.80;99.90
11922;DHT22;6021;51.182;3.160;2024-03-23T01:27:30;5.90;99.90
11922;DHT22;6021;51.182;3.160;2024-03-23T01:29:59;5.80;99.90
11922;DHT22;6021;51.182;3.160;2024-03-23T01:32:27;5.80;99.90
11922;DHT22;6021;51.182;3.160;2024-03-23T01:34:55;6.20;99.90
11922;DHT22;6021;51.182;3.160;2024-03-23T01:37:24;5.80;99.90
11922;DHT22;6021;51.182;3.160;2024-03-23T01:39:52;5.60;99.90
11922;DHT22;6021;51.182;3.160;2024-03-23T01:42:20;5.70;99.90
11922;DHT22;6021;51.182;3.160;2024-03-23T01:44:49;5.70;99.90
11922;DHT22;6021;51.182;3.160;2024-03-23T01:47:17;5.60;99.90
11922;DHT22;6021;51.182;3.160;2024-03-23T01:49:45;5.70;99.90
11922;DHT22;6021;51.182;3.160;2024-03-23T01:52:14;5.70;99.90
11922;DHT22;6021;51.182;3.160;2024-03-23T01:54:43;5.50;99.90
11922;DHT22;6021;51.182;3.160;2024-03-23T01:57:11;5.50;99.90
11922;DHT22;6021;51.182;3.160;2024-03-23T01:59:41;5.40;99.90
11922;DHT22;6021;51.182;3.160;2024-03-23T02:02:09;5.40;99.90
11922;DHT22;6021;51.182;3.160;2024-03-23T02:04:37;5.40;99.90
11922;DHT22;6021;51.182;3.160;2024-03-23T02:07:07;5.40;99.90
11922;DHT22;6021;51.182;3.160;2024-03-23T02:09:36;5.40;99.90
11922;DHT22;6021;51.182;3.160;2024-03-23T02:12:05;5.50;99.90
11922;DHT22;6021;51.182;3.160;2024-03-23T02:14:33;5.30;99.90
11922;DHT22;6021;51.182;3.160;2024-03-23T02:17:01;5.20;99.90
11922;DHT22;6021;51.182;3.160;2024-03-23T02:19:30;5.20;99.90
11922;DHT22;6021;51.182;3.160;2024-03-23T02:21:59;5.40;99.90
11922;DHT22;6021;51.182;3.160;2024-03-23T02:24:29;5.30;99.90
11922;DHT22;6021;51.182;3.160;2024-03-23T02:26:57;5.30;99.90
11922;DHT22;6021;51.182;3.160;2024-03-23T02:29:25;5.20;99.90
11922;DHT22;6021;51.182;3.160;2024-03-23T02:31:53;5.40;99.90
11922;DHT22;6021;51.182;3.160;2024-03-23T02:34:22;5.40;99.90
11922;DHT22;6021;51.182;3.160;2024-03-23T02:36:50;5.40;99.90
11922;DHT22;6021;51.182;3.160;2024-03-23T02:39:19;5.20;99.90
11922;DHT22;6021;51.182;3.160;2024-03-23T02:41:47;5.20;99.90
11922;DHT22;6021;51.182;3.160;2024-03-23T02:44:15;5.10;99.90
11922;DHT22;6021;51.182;3.160;2024-03-23T02:46:44;5.10;99.90
11922;DHT22;6021;51.182;3.160;2024-03-23T02:49:12;5.10;99.90
11922;DHT22;6021;51.182;3.160;2024-03-23T02:51:41;5.20;99.90
11922;DHT22;6021;51.182;3.160;2024-03-23T02:54:11;5.00;99.90
11922;DHT22;6021;51.182;3.160;2024-03-23T02:56:39;4.90;99.90
11922;DHT22;6021;51.182;3.160;2024-03-23T02:59:07;5.00;99.90
11922;DHT22;6021;51.182;3.160;2024-03-23T03:01:36;4.90;99.90
11922;DHT22;6021;51.182;3.160;2024-03-23T03:04:04;4.80;99.90
11922;DHT22;6021;51.182;3.160;2024-03-23T03:06:33;4.90;99.90
11922;DHT22;6021;51.182;3.160;2024-03-23T03:09:01;5.00;99.90
11922;DHT22;6021;51.182;3.160;2024-03-23T03:11:30;5.00;99.90
11922;DHT22;6021;51.182;3.160;2024-03-23T03:13:58;5.10;99.90
11922;DHT22;6021;51.182;3.160;2024-03-23T03:16:27;5.20;99.90
11922;DHT22;6021;51.182;3.160;2024-03-23T03:18:55;5.50;99.90
11922;DHT22;6021;51.182;3.160;2024-03-23T03:21:24;5.40;99.90
11922;DHT22;6021;51.182;3.160;2024-03-23T03:23:52;5.70;99.90
11922;DHT22;6021;51.182;3.160;2024-03-23T03:26:21;5.70;99.90
11922;DHT22;6021;51.182;3.160;2024-03-23T03:28:50;5.90;99.90
11922;DHT22;6021;51.182;3.160;2024-03-23T03:31:19;5.80;99.90
11922;DHT22;6021;51.182;3.160;2024-03-23T03:33:49;6.10;99.90
11922;DHT22;6021;51.182;3.160;2024-03-23T03:36:18;5.80;99.90
11922;DHT22;6021;51.182;3.160;2024-03-23T03:38:47;5.60;99.90
11922;DHT22;6021;51.182;3.160;2024-03-23T03:41:15;5.70;99.90
11922;DHT22;6021;51.182;3.160;2024-03-23T03:43:44;5.90;99.90
11922;DHT22;6021;51.182;3.160;2024-03-23T03:46:12;5.90;99.90
11922;DHT22;6021;51.182;3.160;2024-03-23T03:48:41;5.70;99.90
11922;DHT22;6021;51.182;3.160;2024-03-23T03:51:09;5.70;99.90
11922;DHT22;6021;51.182;3.160;2024-03-23T03:53:37;5.70;99.90
11922;DHT22;6021;51.182;3.160;2024-03-23T03:56:06;5.70;99.90
11922;DHT22;6021;51.182;3.160;2024-03-23T03:58:34;5.70;99.90
11922;DHT22;6021;51.182;3.160;2024-03-23T04:01:03;5.80;99.90
11922;DHT22;6021;51.182;3.160;2024-03-23T04:03:31;6.10;99.90
11922;DHT22;6021;51.182;3.160;2024-03-23T04:05:59;5.90;99.90
11922;DHT22;6021;51.182;3.160;2024-03-23T04:08:28;6.00;99.90
11922;DHT22;6021;51.182;3.160;2024-03-23T04:10:56;6.00;99.90
11922;DHT22;6021;51.182;3.160;2024-03-23T04:13:24;6.20;99.90
11922;DHT22;6021;51.182;3.160;2024-03-23T04:15:56;6.00;99.90
11922;DHT22;6021;51.182;3.160;2024-03-23T04:18:24;6.00;99.90
11922;DHT22;6021;51.182;3.160;2024-03-23T04:20:53;6.00;99.90
11922;DHT22;6021;51.182;3.160;2024-03-23T04:23:21;5.90;99.90
11922;DHT22;6021;51.182;3.160;2024-03-23T04:25:49;5.90;99.90
11922;DHT22;6021;51.182;3.160;2024-03-23T04:28:19;6.00;99.90
11922;DHT22;6021;51.182;3.160;2024-03-23T04:30:48;6.10;99.90
11922;DHT22;6021;51.182;3.160;2024-03-23T04:33:16;6.10;99.90
11922;DHT22;6021;51.182;3.160;2024-03-23T04:35:48;6.10;99.90
11922;DHT22;6021;51.182;3.160;2024-03-23T04:38:16;6.10;99.90
11922;DHT22;6021;51.182;3.160;2024-03-23T04:40:44;6.20;99.90
11922;DHT22;6021;51.182;3.160;2024-03-23T04:43:12;6.10;99.90
11922;DHT22;6021;51.182;3.160;2024-03-23T04:45:41;6.20;99.90
11922;DHT22;6021;51.182;3.160;2024-03-23T04:48:09;6.20;99.90
11922;DHT22;6021;51.182;3.160;2024-03-23T04:50:37;6.20;99.90
11922;DHT22;6021;51.182;3.160;2024-03-23T04:53:06;6.20;99.90
11922;DHT22;6021;51.182;3.160;2024-03-23T04:55:34;6.20;99.90
11922;DHT22;6021;51.182;3.160;2024-03-23T04:58:03;6.20;99.90
11922;DHT22;6021;51.182;3.160;2024-03-23T05:00:31;6.20;99.90
11922;DHT22;6021;51.182;3.160;2024-03-23T05:03:00;6.20;99.90
11922;DHT22;6021;51.182;3.160;2024-03-23T05:05:28;6.20;99.90
11922;DHT22;6021;51.182;3.160;2024-03-23T05:07:56;6.20;99.90
11922;DHT22;6021;51.182;3.160;2024-03-23T05:10:25;6.20;99.90
11922;DHT22;6021;51.182;3.160;2024-03-23T05:12:53;6.30;99.90
11922;DHT22;6021;51.182;3.160;2024-03-23T05:15:25;6.20;99.90
11922;DHT22;6021;51.182;3.160;2024-03-23T05:17:53;6.30;99.90
11922;DHT22;6021;51.182;3.160;2024-03-23T05:20:21;6.20;99.90
11922;DHT22;6021;51.182;3.160;2024-03-23T05:22:50;6.30;99.90
11922;DHT22;6021;51.182;3.160;2024-03-23T05:25:18;6.20;99.90
11922;DHT22;6021;51.182;3.160;2024-03-23T05:27:47;6.20;99.90
11922;DHT22;6021;51.182;3.160;2024-03-23T05:30:15;6.20;99.90
11922;DHT22;6021;51.182;3.160;2024-03-23T05:32:48;6.00;99.90
11922;DHT22;6021;51.182;3.160;2024-03-23T05:35:16;6.00;99.90
11922;DHT22;6021;51.182;3.160;2024-03-23T05:37:45;5.80;99.90
11922;DHT22;6021;51.182;3.160;2024-03-23T05:40:13;5.70;99.90
11922;DHT22;6021;51.182;3.160;2024-03-23T05:42:42;5.70;99.90
11922;DHT22;6021;51.182;3.160;2024-03-23T05:45:11;5.70;99.90
11922;DHT22;6021;51.182;3.160;2024-03-23T05:47:39;5.80;99.90
11922;DHT22;6021;51.182;3.160;2024-03-23T05:50:08;5.60;99.90
11922;DHT22;6021;51.182;3.160;2024-03-23T05:52:39;5.60;99.90
11922;DHT22;6021;51.182;3.160;2024-03-23T05:55:07;5.60;99.90
11922;DHT22;6021;51.182;3.160;2024-03-23T05:57:36;5.70;99.90
11922;DHT22;6021;51.182;3.160;2024-03-23T06:00:08;5.90;99.90
11922;DHT22;6021;51.182;3.160;2024-03-23T06:02:45;5.90;99.90
11922;DHT22;6021;51.182;3.160;2024-03-23T06:05:14;5.90;99.90
11922;DHT22;6021;51.182;3.160;2024-03-23T06:07:42;5.90;99.90
11922;DHT22;6021;51.182;3.160;2024-03-23T06:10:10;5.90;99.90
11922;DHT22;6021;51.182;3.160;2024-03-23T06:12:39;6.00;99.90
11922;DHT22;6021;51.182;3.160;2024-03-23T06:15:07;5.90;99.90
11922;DHT22;6021;51.182;3.160;2024-03-23T06:17:42;5.90;99.90
11922;DHT22;6021;51.182;3.160;2024-03-23T06:20:12;6.00;99.90
11922;DHT22;6021;51.182;3.160;2024-03-23T06:22:40;6.20;99.90
11922;DHT22;6021;51.182;3.160;2024-03-23T06:25:09;6.20;99.90
11922;DHT22;6021;51.182;3.160;2024-03-23T06:27:39;6.20;99.90
11922;DHT22;6021;51.182;3.160;2024-03-23T06:30:07;6.30;99.90
11922;DHT22;6021;51.182;3.160;2024-03-23T06:32:38;6.20;99.90
11922;DHT22;6021;51.182;3.160;2024-03-23T06:35:06;6.30;99.90
11922;DHT22;6021;51.182;3.160;2024-03-23T06:37:36;6.20;99.90
11922;DHT22;6021;51.182;3.160;2024-03-23T06:40:07;6.20;99.90
11922;DHT22;6021;51.182;3.160;2024-03-23T06:42:37;6.30;99.90
11922;DHT22;6021;51.182;3.160;2024-03-23T06:45:06;6.50;99.90
11922;DHT22;6021;51.182;3.160;2024-03-23T06:47:34;6.80;99.90
11922;DHT22;6021;51.182;3.160;2024-03-23T06:50:07;6.90;99.90
11922;DHT22;6021;51.182;3.160;2024-03-23T06:52:37;7.00;99.90
11922;DHT22;6021;51.182;3.160;2024-03-23T06:55:11;7.20;83.30
11922;DHT22;6021;51.182;3.160;2024-03-23T06:57:36;7.10;27.30
11922;DHT22;6021;51.182;3.160;2024-03-23T07:00:06;6.70;9.60
11922;DHT22;6021;51.182;3.160;2024-03-23T07:02:36;6.70;1.00
11922;DHT22;6021;51.182;3.160;2024-03-23T07:05:06;6.90;1.00
11922;DHT22;6021;51.182;3.160;2024-03-23T07:07:34;6.50;1.00
11922;DHT22;6021;51.182;3.160;2024-03-23T07:10:07;6.50;1.00
11922;DHT22;6021;51.182;3.160;2024-03-23T07:12:36;6.20;1.00
11922;DHT22;6021;51.182;3.160;2024-03-23T07:15:07;6.30;1.00
11922;DHT22;6021;51.182;3.160;2024-03-23T07:17:38;6.40;2.60
11922;DHT22;6021;51.182;3.160;2024-03-23T07:20:06;6.80;12.20
11922;DHT22;6021;51.182;3.160;2024-03-23T07:22:36;6.70;1.00
11922;DHT22;6021;51.182;3.160;2024-03-23T07:25:06;6.70;1.00
11922;DHT22;6021;51.182;3.160;2024-03-23T07:27:34;7.00;10.40
11922;DHT22;6021;51.182;3.160;2024-03-23T07:30:02;6.80;17.30
11922;DHT22;6021;51.182;3.160;2024-03-23T07:32:31;7.20;1.00
11922;DHT22;6021;51.182;3.160;2024-03-23T07:34:59;7.60;1.00
11922;DHT22;6021;51.182;3.160;2024-03-23T07:37:29;7.90;1.00
11922;DHT22;6021;51.182;3.160;2024-03-23T07:39:58;7.60;1.00
11922;DHT22;6021;51.182;3.160;2024-03-23T07:42:27;7.90;1.00
11922;DHT22;6021;51.182;3.160;2024-03-23T07:44:55;7.80;1.00
11922;DHT22;6021;51.182;3.160;2024-03-23T07:47:27;7.90;1.00
11922;DHT22;6021;51.182;3.160;2024-03-23T07:49:55;7.90;1.00
11922;DHT22;6021;51.182;3.160;2024-03-23T07:52:24;7.90;1.00
11922;DHT22;6021;51.182;3.160;2024-03-23T07:54:52;7.40;1.00
11922;DHT22;6021;51.182;3.160;2024-03-23T07:57:21;7.50;1.00
11922;DHT22;6021;51.182;3.160;2024-03-23T07:59:49;7.00;1.00
11922;DHT22;6021;51.182;3.160;2024-03-23T08:02:30;7.10;1.00
11922;DHT22;6021;51.182;3.160;2024-03-23T08:05:20;7.10;1.00
11922;DHT22;6021;51.182;3.160;2024-03-23T08:07:50;7.60;1.00
11922;DHT22;6021;51.182;3.160;2024-03-23T08:10:18;7.90;1.00
11922;DHT22;6021;51.182;3.160;2024-03-23T08:12:49;8.10;1.00
11922;DHT22;6021;51.182;3.160;2024-03-23T08:15:18;8.00;1.00
11922;DHT22;6021;51.182;3.160;2024-03-23T08:17:47;8.30;1.00
11922;DHT22;6021;51.182;3.160;2024-03-23T08:20:17;8.40;1.00
11922;DHT22;6021;51.182;3.160;2024-03-23T08:22:45;8.50;1.00
11922;DHT22;6021;51.182;3.160;2024-03-23T08:25:15;8.20;1.00
11922;DHT22;6021;51.182;3.160;2024-03-23T08:27:45;8.20;1.00
11922;DHT22;6021;51.182;3.160;2024-03-23T08:30:19;8.50;1.00
11922;DHT22;6021;51.182;3.160;2024-03-23T08:32:50;8.50;1.00
11922;DHT22;6021;51.182;3.160;2024-03-23T08:35:19;8.50;1.00
11922;DHT22;6021;51.182;3.160;2024-03-23T08:37:47;8.60;1.00
11922;DHT22;6021;51.182;3.160;2024-03-23T08:40:16;8.80;1.00
11922;DHT22;6021;51.182;3.160;2024-03-23T08:42:44;8.80;1.00
11922;DHT22;6021;51.182;3.160;2024-03-23T08:45:13;8.70;99.90
11922;DHT22;6021;51.182;3.160;2024-03-23T08:47:41;8.40;99.90
11922;DHT22;6021;51.182;3.160;2024-03-23T08:50:10;8.50;99.90
11922;DHT22;6021;51.182;3.160;2024-03-23T08:52:38;8.40;99.90
11922;DHT22;6021;51.182;3.160;2024-03-23T08:55:07;8.30;99.90
11922;DHT22;6021;51.182;3.160;2024-03-23T08:57:37;8.80;99.90
11922;DHT22;6021;51.182;3.160;2024-03-23T09:00:06;8.70;99.90
11922;DHT22;6021;51.182;3.160;2024-03-23T09:02:36;8.70;99.90
11922;DHT22;6021;51.182;3.160;2024-03-23T09:05:04;9.10;99.90
11922;DHT22;6021;51.182;3.160;2024-03-23T09:07:34;8.80;99.90
11922;DHT22;6021;51.182;3.160;2024-03-23T09:10:03;8.80;99.90
11922;DHT22;6021;51.182;3.160;2024-03-23T09:12:32;8.70;99.90
11922;DHT22;6021;51.182;3.160;2024-03-23T09:15:00;8.40;99.90
11922;DHT22;6021;51.182;3.160;2024-03-23T09:17:29;8.30;99.90
11922;DHT22;6021;51.182;3.160;2024-03-23T09:19:58;8.50;99.90
11922;DHT22;6021;51.182;3.160;2024-03-23T09:22:26;8.50;99.90
11922;DHT22;6021;51.182;3.160;2024-03-23T09:24:54;8.50;99.90
11922;DHT22;6021;51.182;3.160;2024-03-23T09:27:23;8.50;99.90
11922;DHT22;6021;51.182;3.160;2024-03-23T09:29:53;8.50;99.90
11922;DHT22;6021;51.182;3.160;2024-03-23T09:32:22;8.30;99.90
11922;DHT22;6021;51.182;3.160;2024-03-23T09:37:54;8.70;99.90
11922;DHT22;6021;51.182;3.160;2024-03-23T09:40:23;8.80;99.90
11922;DHT22;6021;51.182;3.160;2024-03-23T09:42:51;9.10;99.90
11922;DHT22;6021;51.182;3.160;2024-03-23T09:45:28;9.20;99.90
11922;DHT22;6021;51.182;3.160;2024-03-23T09:47:56;9.10;99.90
11922;DHT22;6021;51.182;3.160;2024-03-23T09:50:29;9.40;99.90
11922;DHT22;6021;51.182;3.160;2024-03-23T09:53:07;9.80;99.90
11922;DHT22;6021;51.182;3.160;2024-03-23T09:55:36;9.90;99.90
11922;DHT22;6021;51.182;3.160;2024-03-23T09:58:08;10.00;99.90
11922;DHT22;6021;51.182;3.160;2024-03-23T10:00:36;10.30;99.90
11922;DHT22;6021;51.182;3.160;2024-03-23T10:03:05;10.40;99.90
11922;DHT22;6021;51.182;3.160;2024-03-23T10:05:37;10.20;99.90
11922;DHT22;6021;51.182;3.160;2024-03-23T10:08:17;9.70;99.90
11922;DHT22;6021;51.182;3.160;2024-03-23T10:10:46;9.50;99.90
11922;DHT22;6021;51.182;3.160;2024-03-23T10:13:28;9.30;99.90
11922;DHT22;6021;51.182;3.160;2024-03-23T10:16:02;9.10;99.90
11922;DHT22;6021;51.182;3.160;2024-03-23T10:18:30;9.10;99.90
11922;DHT22;6021;51.182;3.160;2024-03-23T10:24:00;9.00;99.90
11922;DHT22;6021;51.182;3.160;2024-03-23T10:26:34;8.90;99.90
11922;DHT22;6021;51.182;3.160;2024-03-23T10:29:02;9.20;99.90
11922;DHT22;6021;51.182;3.160;2024-03-23T10:31:38;9.30;99.90
11922;DHT22;6021;51.182;3.160;2024-03-23T10:34:34;9.00;99.90
11922;DHT22;6021;51.182;3.160;2024-03-23T10:36:59;8.70;99.90
11922;DHT22;6021;51.182;3.160;2024-03-23T10:39:32;8.70;99.90
11922;DHT22;6021;51.182;3.160;2024-03-23T10:42:11;8.50;99.90
11922;DHT22;6021;51.182;3.160;2024-03-23T10:44:39;8.50;99.90
11922;DHT22;6021;51.182;3.160;2024-03-23T10:47:08;8.80;99.90
11922;DHT22;6021;51.182;3.160;2024-03-23T10:49:37;8.60;99.90
11922;DHT22;6021;51.182;3.160;2024-03-23T10:52:09;8.80;99.90
11922;DHT22;6021;51.182;3.160;2024-03-23T10:54:39;8.80;99.90
11922;DHT22;6021;51.182;3.160;2024-03-23T10:57:14;8.60;99.90
11922;DHT22;6021;51.182;3.160;2024-03-23T10:59:41;8.70;99.90
11922;DHT22;6021;51.182;3.160;2024-03-23T11:05:31;9.60;99.90
11922;DHT22;6021;51.182;3.160;2024-03-23T11:07:59;10.20;99.90
11922;DHT22;6021;51.182;3.160;2024-03-23T11:10:30;10.40;99.90
11922;DHT22;6021;51.182;3.160;2024-03-23T11:13:24;10.30;99.90
11922;DHT22;6021;51.182;3.160;2024-03-23T11:15:52;10.00;99.90
11922;DHT22;6021;51.182;3.160;2024-03-23T11:18:21;10.00;99.90
11922;DHT22;6021;51.182;3.160;2024-03-23T11:20:49;10.30;99.90
11922;DHT22;6021;51.182;3.160;2024-03-23T11:23:30;10.60;99.90
11922;DHT22;6021;51.182;3.160;2024-03-23T11:25:58;10.60;99.90
11922;DHT22;6021;51.182;3.160;2024-03-23T11:28:26;10.90;99.90
11922;DHT22;6021;51.182;3.160;2024-03-23T11:30:55;11.10;99.90
11922;DHT22;6021;51.182;3.160;2024-03-23T11:33:24;11.20;99.90
11922;DHT22;6021;51.182;3.160;2024-03-23T11:35:56;11.00;99.90
11922;DHT22;6021;51.182;3.160;2024-03-23T11:38:25;11.10;99.90
11922;DHT22;6021;51.182;3.160;2024-03-23T11:40:53;11.00;99.90
11922;DHT22;6021;51.182;3.160;2024-03-23T11:43:22;11.00;99.90
11922;DHT22;6021;51.182;3.160;2024-03-23T11:45:52;10.60;99.90
11922;DHT22;6021;51.182;3.160;2024-03-23T11:48:23;10.50;99.90
11922;DHT22;6021;51.182;3.160;2024-03-23T11:50:56;10.30;99.90
11922;DHT22;6021;51.182;3.160;2024-03-23T11:53:31;10.10;99.90
11922;DHT22;6021;51.182;3.160;2024-03-23T11:56:02;9.60;99.90
11922;DHT22;6021;51.182;3.160;2024-03-23T11:58:30;9.20;99.90
11922;DHT22;6021;51.182;3.160;2024-03-23T12:01:02;8.90;99.90
11922;DHT22;6021;51.182;3.160;2024-03-23T12:03:32;8.40;99.90
11922;DHT22;6021;51.182;3.160;2024-03-23T12:06:03;8.00;99.90
11922;DHT22;6021;51.182;3.160;2024-03-23T12:08:37;7.90;99.90
11922;DHT22;6021;51.182;3.160;2024-03-23T12:11:16;7.50;99.90
11922;DHT22;6021;51.182;3.160;2024-03-23T12:13:45;7.80;99.90
11922;DHT22;6021;51.182;3.160;2024-03-23T12:16:30;7.90;99.90
11922;DHT22;6021;51.182;3.160;2024-03-23T12:18:49;7.50;99.90
11922;DHT22;6021;51.182;3.160;2024-03-23T12:21:19;7.80;99.90
11922;DHT22;6021;51.182;3.160;2024-03-23T12:23:51;7.70;99.90
11922;DHT22;6021;51.182;3.160;2024-03-23T12:26:19;7.90;99.90
11922;DHT22;6021;51.182;3.160;2024-03-23T12:28:47;8.00;99.90
11922;DHT22;6021;51.182;3.160;2024-03-23T12:31:16;8.50;99.90
11922;DHT22;6021;51.182;3.160;2024-03-23T12:33:44;8.80;99.90
11922;DHT22;6021;51.182;3.160;2024-03-23T12:36:13;9.10;99.90
11922;DHT22;6021;51.182;3.160;2024-03-23T12:38:42;9.40;99.90
11922;DHT22;6021;51.182;3.160;2024-03-23T12:41:12;9.20;99.90
11922;DHT22;6021;51.182;3.160;2024-03-23T12:43:43;9.10;99.90
11922;DHT22;6021;51.182;3.160;2024-03-23T12:46:11;9.10;99.90
11922;DHT22;6021;51.182;3.160;2024-03-23T12:48:40;8.90;99.90
11922;DHT22;6021;51.182;3.160;2024-03-23T12:51:09;8.80;99.90
11922;DHT22;6021;51.182;3.160;2024-03-23T12:53:38;9.10;99.90
11922;DHT22;6021;51.182;3.160;2024-03-23T12:56:06;9.00;99.90
11922;DHT22;6021;51.182;3.160;2024-03-23T12:58:36;9.00;99.90
11922;DHT22;6021;51.182;3.160;2024-03-23T13:01:05;9.40;99.90
11922;DHT22;6021;51.182;3.160;2024-03-23T13:03:33;9.00;99.90
11922;DHT22;6021;51.182;3.160;2024-03-23T13:06:10;9.10;99.90
11922;DHT22;6021;51.182;3.160;2024-03-23T13:08:36;9.20;99.90
11922;DHT22;6021;51.182;3.160;2024-03-23T13:11:04;9.80;99.90
11922;DHT22;6021;51.182;3.160;2024-03-23T13:13:33;9.60;99.90
11922;DHT22;6021;51.182;3.160;2024-03-23T13:16:01;10.00;99.90
11922;DHT22;6021;51.182;3.160;2024-03-23T13:18:31;10.20;99.90
11922;DHT22;6021;51.182;3.160;2024-03-23T13:21:00;10.50;99.90
11922;DHT22;6021;51.182;3.160;2024-03-23T13:23:28;10.60;99.90
11922;DHT22;6021;51.182;3.160;2024-03-23T13:25:57;10.60;99.90
11922;DHT22;6021;51.182;3.160;2024-03-23T13:28:26;10.70;99.90
11922;DHT22;6021;51.182;3.160;2024-03-23T13:30:56;11.00;99.90
11922;DHT22;6021;51.182;3.160;2024-03-23T13:33:45;11.00;99.90
11922;DHT22;6021;51.182;3.160;2024-03-23T13:36:49;11.00;99.90
11922;DHT22;6021;51.182;3.160;2024-03-23T13:40:17;10.70;99.90
11922;DHT22;6021;51.182;3.160;2024-03-23T13:42:31;10.50;99.90
11922;DHT22;6021;51.182;3.160;2024-03-23T13:45:59;10.10;99.90
11922;DHT22;6021;51.182;3.160;2024-03-23T13:48:17;9.90;98.30
11922;DHT22;6021;51.182;3.160;2024-03-23T13:51:03;9.70;99.90
11922;DHT22;6021;51.182;3.160;2024-03-23T13:53:37;9.50;99.90
11922;DHT22;6021;51.182;3.160;2024-03-23T13:56:19;9.70;99.90
11922;DHT22;6021;51.182;3.160;2024-03-23T13:59:08;9.80;99.90
11922;DHT22;6021;51.182;3.160;2024-03-23T14:01:38;10.00;99.90
11922;DHT22;6021;51.182;3.160;2024-03-23T14:04:12;9.90;99.90
11922;DHT22;6021;51.182;3.160;2024-03-23T14:06:41;10.00;99.90
11922;DHT22;6021;51.182;3.160;2024-03-23T14:09:13;10.10;99.90
11922;DHT22;6021;51.182;3.160;2024-03-23T14:11:42;9.90;99.90
11922;DHT22;6021;51.182;3.160;2024-03-23T14:14:11;9.60;99.90
11922;DHT22;6021;51.182;3.160;2024-03-23T14:16:39;9.50;99.90
11922;DHT22;6021;51.182;3.160;2024-03-23T14:19:10;9.10;99.90
11922;DHT22;6021;51.182;3.160;2024-03-23T14:21:38;8.70;99.90
11922;DHT22;6021;51.182;3.160;2024-03-23T14:24:07;8.50;99.90
11922;DHT22;6021;51.182;3.160;2024-03-23T14:26:36;7.70;99.90
11922;DHT22;6021;51.182;3.160;2024-03-23T14:29:06;7.30;99.90
11922;DHT22;6021;51.182;3.160;2024-03-23T14:31:36;7.10;99.90
11922;DHT22;6021;51.182;3.160;2024-03-23T14:34:04;7.30;99.90
11922;DHT22;6021;51.182;3.160;2024-03-23T14:36:32;7.60;99.90
11922;DHT22;6021;51.182;3.160;2024-03-23T14:39:01;7.40;99.90
11922;DHT22;6021;51.182;3.160;2024-03-23T14:41:30;7.40;99.90
11922;DHT22;6021;51.182;3.160;2024-03-23T14:43:58;7.50;99.90
11922;DHT22;6021;51.182;3.160;2024-03-23T14:46:26;7.40;99.90
11922;DHT22;6021;51.182;3.160;2024-03-23T14:49:00;7.50;99.90
11922;DHT22;6021;51.182;3.160;2024-03-23T14:51:29;7.60;99.90
11922;DHT22;6021;51.182;3.160;2024-03-23T14:53:59;7.90;99.90
11922;DHT22;6021;51.182;3.160;2024-03-23T14:56:28;7.90;99.90
11922;DHT22;6021;51.182;3.160;2024-03-23T14:58:56;7.80;99.90
11922;DHT22;6021;51.182;3.160;2024-03-23T15:01:27;7.80;99.90
11922;DHT22;6021;51.182;3.160;2024-03-23T15:03:55;7.80;99.90
11922;DHT22;6021;51.182;3.160;2024-03-23T15:06:33;7.80;99.90
11922;DHT22;6021;51.182;3.160;2024-03-23T15:09:02;7.60;99.90
11922;DHT22;6021;51.182;3.160;2024-03-23T15:11:43;7.90;99.90
11922;DHT22;6021;51.182;3.160;2024-03-23T15:17:07;8.10;99.90
11922;DHT22;6021;51.182;3.160;2024-03-23T15:22:18;7.80;99.90
11922;DHT22;6021;51.182;3.160;2024-03-23T15:24:53;8.10;99.90
11922;DHT22;6021;51.182;3.160;2024-03-23T15:27:35;7.80;99.90
11922;DHT22;6021;51.182;3.160;2024-03-23T15:30:17;7.70;99.90
11922;DHT22;6021;51.182;3.160;2024-03-23T15:32:47;7.70;99.90
11922;DHT22;6021;51.182;3.160;2024-03-23T15:35:16;7.70;99.90
11922;DHT22;6021;51.182;3.160;2024-03-23T15:37:44;7.90;99.90
11922;DHT22;6021;51.182;3.160;2024-03-23T15:40:13;7.60;99.90
11922;DHT22;6021;51.182;3.160;2024-03-23T15:42:43;7.40;99.90
11922;DHT22;6021;51.182;3.160;2024-03-23T15:45:20;7.40;99.90
11922;DHT22;6021;51.182;3.160;2024-03-23T15:47:52;7.40;99.90
11922;DHT22;6021;51.182;3.160;2024-03-23T15:50:24;7.30;99.90
11922;DHT22;6021;51.182;3.160;2024-03-23T15:52:54;7.10;99.90
11922;DHT22;6021;51.182;3.160;2024-03-23T15:58:08;7.00;99.90
11922;DHT22;6021;51.182;3.160;2024-03-23T16:00:36;7.20;99.90
11922;DHT22;6021;51.182;3.160;2024-03-23T16:03:06;7.20;99.90
11922;DHT22;6021;51.182;3.160;2024-03-23T16:05:39;7.00;99.90
11922;DHT22;6021;51.182;3.160;2024-03-23T16:08:06;7.00;99.90
11922;DHT22;6021;51.182;3.160;2024-03-23T16:10:36;6.50;99.90
11922;DHT22;6021;51.182;3.160;2024-03-23T16:13:09;6.50;99.90
11922;DHT22;6021;51.182;3.160;2024-03-23T16:15:39;6.50;99.90
11922;DHT22;6021;51.182;3.160;2024-03-23T16:18:14;6.50;99.90
11922;DHT22;6021;51.182;3.160;2024-03-23T16:20:57;6.80;99.90
11922;DHT22;6021;51.182;3.160;2024-03-23T16:23:16;6.90;99.90
11922;DHT22;6021;51.182;3.160;2024-03-23T16:25:49;7.50;99.90
11922;DHT22;6021;51.182;3.160;2024-03-23T16:28:31;7.90;99.90
11922;DHT22;6021;51.182;3.160;2024-03-23T16:31:03;8.00;99.90
11922;DHT22;6021;51.182;3.160;2024-03-23T16:33:40;8.20;99.90
11922;DHT22;6021;51.182;3.160;2024-03-23T16:36:16;8.20;99.90
11922;DHT22;6021;51.182;3.160;2024-03-23T16:38:45;8.20;99.90
11922;DHT22;6021;51.182;3.160;2024-03-23T16:42:31;8.40;99.90
11922;DHT22;6021;51.182;3.160;2024-03-23T16:44:43;8.00;99.90
11922;DHT22;6021;51.182;3.160;2024-03-23T16:47:24;8.10;99.90
11922;DHT22;6021;51.182;3.160;2024-03-23T16:49:56;8.50;99.90
11922;DHT22;6021;51.182;3.160;2024-03-23T16:52:36;8.50;99.90
11922;DHT22;6021;51.182;3.160;2024-03-23T16:55:01;8.50;99.90
11922;DHT22;6021;51.182;3.160;2024-03-23T16:57:29;8.50;99.90
11922;DHT22;6021;51.182;3.160;2024-03-23T16:59:58;8.20;99.90
11922;DHT22;6021;51.182;3.160;2024-03-23T17:02:26;8.20;99.90
11922;DHT22;6021;51.182;3.160;2024-03-23T17:04:55;8.10;99.90
11922;DHT22;6021;51.182;3.160;2024-03-23T17:07:24;8.10;99.90
11922;DHT22;6021;51.182;3.160;2024-03-23T17:09:54;7.80;99.90
11922;DHT22;6021;51.182;3.160;2024-03-23T17:12:23;7.60;99.90
11922;DHT22;6021;51.182;3.160;2024-03-23T17:14:56;7.50;99.90
11922;DHT22;6021;51.182;3.160;2024-03-23T17:17:21;7.90;99.90
11922;DHT22;6021;51.182;3.160;2024-03-23T17:19:50;7.70;99.90
11922;DHT22;6021;51.182;3.160;2024-03-23T17:22:18;7.80;99.90
11922;DHT22;6021;51.182;3.160;2024-03-23T17:24:51;7.90;99.90
11922;DHT22;6021;51.182;3.160;2024-03-23T17:27:19;7.80;99.90
11922;DHT22;6021;51.182;3.160;2024-03-23T17:29:48;7.60;99.90
11922;DHT22;6021;51.182;3.160;2024-03-23T17:32:18;7.30;99.90